»·PEaware :: N445VG KBOI-KMYL

N445VG :: KBOI-KMYL

FLIGHT INFORMATION

Flight Status: Arrived
Operator: Privately registered:
United States
More flights under this callsign
Pilot: John C. (9438)
Aircraft: MOONEY M-20 201 202 205 220 ATS MSE
(M20P)
More flights by this aircraft type
Origin: KBOI Boise Air Terminal/Gowen
United States
Destination: KMYL McCall
United States
More flights between these airports :: More routes between these airports
Route: +
File this flight plan on PilotEdge
Remarks:
Altitude:
(Current/Filed)
10,500ft
Speed:
(Current/Filed)
0kts
Departed: 24-Apr-18 04:17 PM
Arrived: 24-Apr-18 04:54 PM
Distance/Time
Traveled:
80nm/0:37
Distance/Time
To Go:
Arrived

Flight Plot

Page will automatically refresh every two minutes.

Flight plan parsing failed; only flown route is shown


Map Options




Map Legend


Flown Route
Filed Route
Departure Airport
Arrival Airport
Navaid (VOR, NDB)
Fix

Horizontal Profiles

Position Reports

Time Latitude Longitude Heading Altitude Ground
Speed
24-Apr-18 16:05 43.563160 -116.241177 263 2873ft 0kts
24-Apr-18 16:06 43.563160 -116.241177 263 2873ft 0kts
24-Apr-18 16:07 43.563160 -116.241177 263 2873ft 0kts
24-Apr-18 16:08 43.563160 -116.241177 263 2873ft 0kts
24-Apr-18 16:09 43.563160 -116.241177 263 2873ft 0kts
24-Apr-18 16:10 43.564247 -116.241146 281 2873ft 9kts
24-Apr-18 16:11 43.567440 -116.242678 0 2873ft 16kts
24-Apr-18 16:12 43.569043 -116.242676 0 2873ft 0kts
24-Apr-18 16:13 43.569043 -116.242676 0 2873ft 0kts
24-Apr-18 16:14 43.569043 -116.242676 0 2873ft 0kts
24-Apr-18 16:15 43.569043 -116.242676 0 2873ft 0kts
24-Apr-18 16:16 43.566557 -116.232317 114 2873ft 93kts
24-Apr-18 16:17 43.556421 -116.189939 109 3522ft 126kts
24-Apr-18 16:18 43.541834 -116.142716 119 4248ft 138kts
24-Apr-18 16:19 43.535511 -116.094065 65 5021ft 141kts
24-Apr-18 16:20 43.562692 -116.059231 16 5908ft 137kts
24-Apr-18 16:21 43.591109 -116.087687 311 6801ft 127kts
24-Apr-18 16:22 43.614911 -116.125367 311 7365ft 137kts
24-Apr-18 16:23 43.641361 -116.167039 310 7798ft 150kts
24-Apr-18 16:24 43.671204 -116.209350 320 8229ft 156kts
24-Apr-18 16:25 43.704709 -116.248369 320 8650ft 158kts
24-Apr-18 16:26 43.743484 -116.275120 346 9062ft 160kts
24-Apr-18 16:27 43.787562 -116.287554 353 9397ft 164kts
24-Apr-18 16:28 43.833065 -116.296807 353 9723ft 166kts
24-Apr-18 16:29 43.878116 -116.297993 25 10066ft 163kts
24-Apr-18 16:30 43.919648 -116.272920 25 10391ft 163kts
24-Apr-18 16:31 43.962132 -116.247012 26 10501ft 175kts
24-Apr-18 16:32 44.008043 -116.218640 25 10501ft 184kts
24-Apr-18 16:33 44.055581 -116.191403 21 10498ft 186kts
24-Apr-18 16:34 44.104748 -116.167952 21 10500ft 189kts
24-Apr-18 16:35 44.154187 -116.144073 20 10497ft 190kts
24-Apr-18 16:36 44.204994 -116.123220 19 10498ft 191kts
24-Apr-18 16:37 44.255743 -116.102968 18 10481ft 187kts
24-Apr-18 16:38 44.304639 -116.081281 18 10481ft 183kts
24-Apr-18 16:39 44.354519 -116.074108 2 10483ft 180kts
24-Apr-18 16:40 44.404470 -116.071681 2 10480ft 180kts
24-Apr-18 16:41 44.454503 -116.069266 2 10479ft 180kts
24-Apr-18 16:42 44.504589 -116.066767 2 10400ft 181kts
24-Apr-18 16:43 44.555006 -116.064243 2 10006ft 183kts
24-Apr-18 16:44 44.605929 -116.061704 2 9619ft 184kts
24-Apr-18 16:45 44.656793 -116.059135 2 9231ft 181kts
24-Apr-18 16:46 44.704907 -116.074997 337 8820ft 178kts
24-Apr-18 16:47 44.747627 -116.096409 356 8450ft 169kts
24-Apr-18 16:48 44.785433 -116.098182 359 7729ft 146kts
24-Apr-18 16:49 44.817359 -116.099329 357 6449ft 103kts
24-Apr-18 16:50 44.843262 -116.100467 358 5615ft 82kts
24-Apr-18 16:51 44.864563 -116.100922 358 5347ft 80kts
24-Apr-18 16:52 44.887311 -116.101715 0 5024ft 56kts
24-Apr-18 16:53 44.894808 -116.101957 357 5024ft 14kts
24-Apr-18 16:54 44.896552 -116.099826 182 5024ft 14kts
24-Apr-18 16:55 44.896013 -116.099600 88 5024ft 0kts
24-Apr-18 16:56 44.896013 -116.099600 88 5024ft 0kts

Navigation Log

Ident Type
Flight plan parsing failed, navigation log unavailable